createdAt,value
2023-05-03T00:00:08.183Z,95789.75
2023-05-03T00:02:39.186Z,95785.34
2023-05-03T00:05:09.811Z,95785.50
2023-05-03T00:07:40.330Z,95786.31
2023-05-03T00:10:10.324Z,95788.94
2023-05-03T00:12:39.395Z,95784.66
2023-05-03T00:15:07.695Z,95784.66
2023-05-03T00:17:35.415Z,95789.88
2023-05-03T00:20:03.267Z,95781.22
2023-05-03T00:22:30.959Z,95773.38
2023-05-03T00:24:59.881Z,95787.28
2023-05-03T00:27:27.451Z,95782.03
2023-05-03T00:29:54.980Z,95779.44
2023-05-03T00:32:23.620Z,95785.50
2023-05-03T00:34:53.678Z,95779.44
2023-05-03T00:37:21.190Z,95784.66
2023-05-03T00:39:48.734Z,95779.44
2023-05-03T00:42:17.562Z,95776.81
2023-05-03T00:44:45.067Z,95777.66
2023-05-03T00:47:12.813Z,95774.19
2023-05-03T00:49:41.230Z,95775.84
2023-05-03T00:52:09.585Z,95771.44
2023-05-03T00:54:37.983Z,95769.81
2023-05-03T00:57:05.929Z,95772.41
2023-05-03T00:59:34.845Z,95776.66
2023-05-03T01:02:02.678Z,95773.25
2023-05-03T01:04:30.668Z,95768.97
2023-05-03T01:07:04.553Z,95761.13
2023-05-03T01:09:36.244Z,95761.94
2023-05-03T01:12:09.906Z,95761.94
2023-05-03T01:14:42.412Z,95764.69
2023-05-03T01:17:10.751Z,95762.91
2023-05-03T01:19:39.103Z,95770.75
2023-05-03T01:22:12.067Z,95762.06
2023-05-03T01:24:42.567Z,95763.88
2023-05-03T01:27:11.884Z,95765.53
2023-05-03T01:29:39.392Z,95759.47
2023-05-03T01:32:10.272Z,95766.50
2023-05-03T01:34:39.961Z,95762.22
2023-05-03T01:37:10.216Z,95762.22
2023-05-03T01:39:39.486Z,95768.28
2023-05-03T01:42:07.168Z,95765.66
2023-05-03T01:44:36.681Z,95759.59
2023-05-03T01:47:05.281Z,95759.59
2023-05-03T01:49:33.254Z,95757.81
2023-05-03T01:52:00.723Z,95759.75
2023-05-03T01:54:28.241Z,95766.63
2023-05-03T01:56:56.081Z,95769.22
2023-05-03T01:59:23.547Z,95771.03
2023-05-03T02:01:52.363Z,95769.22
2023-05-03T02:04:19.879Z,95767.59
2023-05-03T02:06:47.560Z,95771.84
2023-05-03T02:09:15.122Z,95766.63
2023-05-03T02:11:43.891Z,95774.47
2023-05-03T02:14:11.398Z,95771.03
2023-05-03T02:16:38.870Z,95776.13
2023-05-03T02:19:07.981Z,95771.84
2023-05-03T02:21:35.688Z,95770.06
2023-05-03T02:24:03.754Z,95762.22
2023-05-03T02:26:31.245Z,95760.44
2023-05-03T02:28:59.664Z,95764.69
2023-05-03T02:31:27.537Z,95761.38
2023-05-03T02:33:55.774Z,95768.28
2023-05-03T02:36:24.606Z,95770.06
2023-05-03T02:38:52.051Z,95764.84
2023-05-03T02:41:19.553Z,95770.22
2023-05-03T02:43:47.019Z,95777.06
2023-05-03T02:46:14.546Z,95769.22
2023-05-03T02:48:42.047Z,95768.28
2023-05-03T02:51:09.491Z,95777.91
2023-05-03T02:53:38.417Z,95770.22
2023-05-03T02:56:06.351Z,95770.22
2023-05-03T02:58:33.803Z,95775.44
2023-05-03T03:01:01.267Z,95771.16
2023-05-03T03:03:28.816Z,95775.44
2023-05-03T03:05:56.316Z,95779.84
2023-05-03T03:08:24.021Z,95773.78
2023-05-03T03:10:52.836Z,95781.63
2023-05-03T03:13:20.268Z,95779.00
2023-05-03T03:15:47.689Z,95778.22
2023-05-03T03:18:16.089Z,95776.41
2023-05-03T03:20:44.653Z,95769.38
2023-05-03T03:23:12.151Z,95770.22
2023-05-03T03:25:39.694Z,95765.94
2023-05-03T03:28:08.496Z,95768.56
2023-05-03T03:30:35.997Z,95767.75
2023-05-03T03:33:03.653Z,95771.16
2023-05-03T03:35:31.542Z,95772.00
2023-05-03T03:37:59.295Z,95772.97
2023-05-03T03:40:26.794Z,95769.53
2023-05-03T03:42:54.199Z,95779.00
2023-05-03T03:45:22.985Z,95772.97
2023-05-03T03:47:51.555Z,95771.16
2023-05-03T03:50:20.549Z,95772.00
2023-05-03T03:52:48.016Z,95772.00
2023-05-03T03:55:15.592Z,95773.78
2023-05-03T03:57:43.102Z,95783.28
2023-05-03T04:00:11.734Z,95776.28
2023-05-03T04:02:40.950Z,95778.06
2023-05-03T04:05:08.717Z,95784.94
2023-05-03T04:07:36.186Z,95776.28
2023-05-03T04:10:03.765Z,95777.06
2023-05-03T04:12:31.413Z,95779.69
2023-05-03T04:14:58.835Z,95775.28
2023-05-03T04:17:26.297Z,95779.69
2023-05-03T04:19:55.102Z,95783.13
2023-05-03T04:22:22.577Z,95779.69
2023-05-03T04:24:50.550Z,95780.53
2023-05-03T04:27:18.813Z,95794.44
2023-05-03T04:29:46.244Z,95796.06
2023-05-03T04:32:14.436Z,95798.84
2023-05-03T04:34:42.306Z,95795.38
2023-05-03T04:37:11.087Z,95795.38
2023-05-03T04:39:38.578Z,95799.81
2023-05-03T04:42:06.082Z,95803.22
2023-05-03T04:44:33.508Z,95798.97
2023-05-03T04:47:00.994Z,95800.63
2023-05-03T04:49:28.484Z,95798.97
2023-05-03T04:51:56.532Z,95800.63
2023-05-03T04:54:25.456Z,95798.97
2023-05-03T04:56:52.940Z,95803.22
2023-05-03T04:59:20.412Z,95810.28
2023-05-03T05:01:48.416Z,95808.47
2023-05-03T05:04:15.943Z,95805.03
2023-05-03T05:06:43.450Z,95818.91
2023-05-03T05:09:23.392Z,95820.72
2023-05-03T05:11:53.913Z,95820.72
2023-05-03T05:14:22.726Z,95830.38
2023-05-03T05:16:50.256Z,95825.97
2023-05-03T05:19:17.778Z,95826.75
2023-05-03T05:21:45.325Z,95829.38
2023-05-03T05:24:12.994Z,95826.75
2023-05-03T05:26:40.819Z,95834.59
2023-05-03T05:29:09.605Z,95837.22
2023-05-03T05:31:37.424Z,95837.22
2023-05-03T05:34:05.001Z,95839.03
2023-05-03T05:36:32.828Z,95841.50
2023-05-03T05:39:00.314Z,95838.06
2023-05-03T05:41:27.843Z,95838.06
2023-05-03T05:43:55.319Z,95840.53
2023-05-03T05:46:24.169Z,95848.38
2023-05-03T05:48:52.455Z,95841.50
2023-05-03T05:51:20.217Z,95843.97
2023-05-03T05:53:47.752Z,95844.13
2023-05-03T05:56:15.186Z,95844.13
2023-05-03T05:58:42.612Z,95838.88
2023-05-03T06:01:10.692Z,95843.13
2023-05-03T06:03:39.558Z,95838.88
2023-05-03T06:06:07.129Z,95849.34
2023-05-03T06:08:34.768Z,95843.13
2023-05-03T06:11:02.215Z,95851.13
2023-05-03T06:13:29.683Z,95848.53
2023-05-03T06:15:57.132Z,95841.50
2023-05-03T06:18:24.609Z,95853.75
2023-05-03T06:20:53.373Z,95849.34
2023-05-03T06:23:20.810Z,95849.50
2023-05-03T06:25:48.448Z,95848.53
2023-05-03T06:28:15.927Z,95850.31
2023-05-03T06:30:43.785Z,95852.91
2023-05-03T06:33:11.574Z,95861.59
2023-05-03T06:35:39.131Z,95865.03
2023-05-03T06:38:07.969Z,95865.03
2023-05-03T06:40:37.792Z,95863.38
2023-05-03T06:43:06.044Z,95872.75
2023-05-03T06:45:33.570Z,95866.69
2023-05-03T06:48:01.079Z,95870.13
2023-05-03T06:50:28.633Z,95863.13
2023-05-03T06:52:56.155Z,95865.72
2023-05-03T06:55:24.935Z,95867.41
2023-05-03T06:57:53.741Z,95865.59
2023-05-03T07:00:23.086Z,95869.19
2023-05-03T07:02:50.591Z,95872.63
2023-05-03T07:05:18.245Z,95868.19
2023-05-03T07:07:46.243Z,95868.19
2023-05-03T07:10:13.720Z,95870.00
2023-05-03T07:12:42.511Z,95868.19
2023-05-03T07:15:10.640Z,95871.66
2023-05-03T07:17:38.110Z,95872.63
2023-05-03T07:20:06.688Z,95867.41
2023-05-03T07:22:34.179Z,95862.84
2023-05-03T07:25:01.649Z,95866.56
2023-05-03T07:27:29.120Z,95860.34
2023-05-03T07:29:57.881Z,95858.56
2023-05-03T07:32:25.779Z,95855.13
2023-05-03T07:34:53.296Z,95850.88
2023-05-03T07:37:21.802Z,95856.09
2023-05-03T07:39:49.242Z,95862.16
2023-05-03T07:42:16.722Z,95860.50
2023-05-03T07:44:44.140Z,95861.44
2023-05-03T07:47:13.063Z,95865.72
2023-05-03T07:49:40.492Z,95865.72
2023-05-03T07:52:07.940Z,95864.91
2023-05-03T07:54:35.428Z,95866.56
2023-05-03T07:57:03.723Z,95864.91
2023-05-03T07:59:31.202Z,95870.28
2023-05-03T08:02:01.258Z,95870.97
2023-05-03T08:04:30.664Z,95865.03
2023-05-03T08:07:01.103Z,95860.50
2023-05-03T08:09:29.250Z,95858.97
2023-05-03T08:11:56.960Z,95861.59
2023-05-03T08:14:24.449Z,95857.19
2023-05-03T08:16:52.362Z,95857.34
2023-05-03T08:19:19.904Z,95852.91
2023-05-03T08:21:48.729Z,95858.97
2023-05-03T08:24:16.567Z,95858.97
2023-05-03T08:26:46.600Z,95854.59
2023-05-03T08:29:14.360Z,95856.38
2023-05-03T08:31:42.155Z,95857.19
2023-05-03T08:34:10.858Z,95858.03
2023-05-03T08:36:39.215Z,95852.81
2023-05-03T08:39:08.039Z,95856.22
2023-05-03T08:41:35.589Z,95848.38
2023-05-03T08:44:04.691Z,95845.63
2023-05-03T08:46:32.255Z,95849.22
2023-05-03T08:48:59.956Z,95845.63
2023-05-03T08:51:27.805Z,95846.59
2023-05-03T08:53:55.298Z,95838.75
2023-05-03T08:56:29.079Z,95841.34
2023-05-03T08:58:57.191Z,95838.88
2023-05-03T09:01:24.660Z,95837.91
2023-05-03T09:03:52.894Z,95854.31
2023-05-03T09:06:21.617Z,95852.66
2023-05-03T09:08:50.120Z,95855.28
2023-05-03T09:11:24.490Z,95852.81
2023-05-03T09:13:53.928Z,95859.81
2023-05-03T09:16:24.642Z,95853.59
2023-05-03T09:18:58.488Z,95854.44
2023-05-03T09:21:26.073Z,95852.66
2023-05-03T09:23:53.580Z,95855.28
2023-05-03T09:26:30.989Z,95855.41
2023-05-03T09:29:01.188Z,95855.53
2023-05-03T09:31:28.917Z,95851.97
2023-05-03T09:33:56.513Z,95854.59
2023-05-03T09:36:24.213Z,95852.81
2023-05-03T09:38:52.063Z,95849.34
2023-05-03T09:41:27.930Z,95841.50
2023-05-03T09:43:56.820Z,95844.13
2023-05-03T09:46:26.530Z,95846.75
2023-05-03T09:48:56.877Z,95836.44
2023-05-03T09:51:25.004Z,95835.44
2023-05-03T09:53:53.253Z,95835.44
2023-05-03T09:56:26.412Z,95834.59
2023-05-03T09:58:54.206Z,95834.59
2023-05-03T10:01:22.840Z,95832.00
2023-05-03T10:03:52.981Z,95834.59
2023-05-03T10:06:25.004Z,95832.00
2023-05-03T10:08:54.389Z,95826.75
2023-05-03T10:11:24.907Z,95825.97
2023-05-03T10:13:52.528Z,95821.53
2023-05-03T10:16:22.240Z,95821.53
2023-05-03T10:18:54.902Z,95824.16
2023-05-03T10:21:27.581Z,95824.97
2023-05-03T10:24:16.195Z,95827.44
2023-05-03T10:26:45.931Z,95823.06
2023-05-03T10:29:32.504Z,95822.22
2023-05-03T10:32:00.098Z,95819.59
2023-05-03T10:34:32.333Z,95817.00
2023-05-03T10:37:02.318Z,95814.38
2023-05-03T10:39:30.279Z,95813.56
2023-05-03T10:41:58.379Z,95809.28
2023-05-03T10:44:26.856Z,95803.22
2023-05-03T10:46:54.719Z,95810.13
2023-05-03T10:49:23.676Z,95812.75
2023-05-03T10:51:52.690Z,95815.34
2023-05-03T10:54:20.198Z,95809.28
2023-05-03T10:56:51.901Z,95813.56
2023-05-03T10:59:19.689Z,95811.91
2023-05-03T11:01:48.468Z,95804.06
2023-05-03T11:04:19.853Z,95811.91
2023-05-03T11:06:51.766Z,95801.59
2023-05-03T11:09:21.235Z,95805.03
2023-05-03T11:11:48.732Z,95803.22
2023-05-03T11:14:16.222Z,95801.44
2023-05-03T11:16:50.643Z,95794.59
2023-05-03T11:19:18.306Z,95799.81
2023-05-03T11:21:48.264Z,95796.38
2023-05-03T11:24:16.024Z,95807.50
2023-05-03T11:26:44.826Z,95792.78
2023-05-03T11:29:13.932Z,95800.50
2023-05-03T11:31:43.158Z,95796.22
2023-05-03T11:34:11.154Z,95791.97
2023-05-03T11:36:38.678Z,95789.34
2023-05-03T11:39:06.680Z,95787.53
2023-05-03T11:41:34.097Z,95789.34
2023-05-03T11:44:15.292Z,95778.91
2023-05-03T11:46:45.279Z,95788.38
2023-05-03T11:49:18.266Z,95787.53
2023-05-03T11:51:48.657Z,95781.34
2023-05-03T11:54:25.336Z,95780.38
2023-05-03T11:56:56.458Z,95781.34
2023-05-03T11:59:35.797Z,95775.97
2023-05-03T12:02:04.232Z,95775.16
2023-05-03T12:04:32.256Z,95778.75
2023-05-03T12:07:00.833Z,95774.34
2023-05-03T12:09:29.603Z,95771.59
2023-05-03T12:11:59.118Z,95769.13
2023-05-03T12:14:28.971Z,95773.38
2023-05-03T12:17:00.194Z,95762.91
2023-05-03T12:19:31.802Z,95770.91
2023-05-03T12:24:33.514Z,95763.06
2023-05-03T12:27:02.682Z,95769.13
2023-05-03T12:29:34.836Z,95764.84
2023-05-03T12:32:05.065Z,95765.53
2023-05-03T12:34:36.363Z,95763.06
2023-05-03T12:37:05.665Z,95765.53
2023-05-03T12:39:33.980Z,95754.22
2023-05-03T12:44:35.149Z,95755.22
2023-05-03T12:47:04.953Z,95751.75
2023-05-03T12:49:38.757Z,95745.69
2023-05-03T12:54:41.474Z,95738.69
2023-05-03T12:57:15.340Z,95741.31
2023-05-03T12:59:44.551Z,95741.31
2023-05-03T13:04:59.053Z,95745.69
2023-05-03T13:07:29.443Z,95740.47
2023-05-03T13:12:30.948Z,95720.38
2023-05-03T13:14:58.689Z,95720.38
2023-05-03T13:17:27.522Z,95724.78
2023-05-03T13:19:55.190Z,95726.44
2023-05-03T13:22:23.235Z,95720.38
2023-05-03T13:24:50.918Z,95716.94
2023-05-03T13:27:18.859Z,95715.16
2023-05-03T13:29:48.873Z,95709.78
2023-05-03T13:32:17.219Z,95705.53
2023-05-03T13:34:46.291Z,95711.59
2023-05-03T13:37:18.307Z,95701.94
2023-05-03T13:39:46.649Z,95705.38
2023-05-03T13:42:14.168Z,95700.28
2023-05-03T13:44:42.477Z,95705.38
2023-05-03T13:47:09.961Z,95707.97
2023-05-03T13:49:37.403Z,95701.81
2023-05-03T13:52:06.254Z,95689.56
2023-05-03T13:54:33.691Z,95688.72
2023-05-03T13:57:01.289Z,95689.41
2023-05-03T13:59:28.726Z,95686.78
2023-05-03T14:01:56.624Z,95681.56
2023-05-03T14:04:25.505Z,95690.25
2023-05-03T14:06:53.109Z,95678.94
2023-05-03T14:09:21.921Z,95689.41
2023-05-03T14:11:49.425Z,95679.09
2023-05-03T14:14:17.028Z,95692.03
2023-05-03T14:16:44.655Z,95688.56
2023-05-03T14:19:12.421Z,95687.75
2023-05-03T14:21:40.156Z,95690.34
2023-05-03T14:24:07.717Z,95690.34
2023-05-03T14:26:36.911Z,95690.34
2023-05-03T14:29:05.756Z,95688.56
2023-05-03T14:31:33.885Z,95681.72
2023-05-03T14:34:01.377Z,95673.88
2023-05-03T14:36:33.322Z,95673.88
2023-05-03T14:39:00.757Z,95672.06
2023-05-03T14:41:28.163Z,95666.03
2023-05-03T14:43:57.040Z,95662.56
2023-05-03T14:46:24.469Z,95664.22
2023-05-03T14:48:52.072Z,95663.41
2023-05-03T14:51:19.959Z,95664.22
2023-05-03T14:53:47.433Z,95668.63
2023-05-03T14:56:15.002Z,95670.28
2023-05-03T14:58:42.620Z,95663.25
2023-05-03T15:01:17.647Z,95657.19
2023-05-03T15:03:45.203Z,95658.19
2023-05-03T15:06:12.686Z,95659.81
2023-05-03T15:08:40.096Z,95660.63
2023-05-03T15:11:07.832Z,95655.41
2023-05-03T15:13:35.535Z,95646.72
2023-05-03T15:16:03.049Z,95662.28
2023-05-03T15:18:32.056Z,95666.69
2023-05-03T15:20:59.472Z,95670.28
2023-05-03T15:23:26.912Z,95668.47
2023-05-03T15:25:54.382Z,95666.81
2023-05-03T15:28:21.993Z,95665.88
2023-05-03T15:30:50.805Z,95671.09
2023-05-03T15:33:18.386Z,95668.47
2023-05-03T15:35:47.170Z,95667.81
2023-05-03T15:38:14.604Z,95671.09
2023-05-03T15:40:42.117Z,95665.03
2023-05-03T15:43:09.604Z,95667.66
2023-05-03T15:45:37.192Z,95665.03
2023-05-03T15:48:04.971Z,95666.03
2023-05-03T15:50:32.454Z,95660.78
2023-05-03T15:53:01.369Z,95665.03
2023-05-03T15:55:28.871Z,95663.25
2023-05-03T15:57:57.048Z,95672.06
2023-05-03T16:00:25.781Z,95670.28
2023-05-03T16:02:53.358Z,95666.81
2023-05-03T16:05:21.157Z,95663.41
2023-05-03T16:07:49.405Z,95659.81
2023-05-03T16:10:18.270Z,95664.22
2023-05-03T16:12:45.761Z,95664.22
2023-05-03T16:15:13.514Z,95657.34
2023-05-03T16:17:41.207Z,95660.78
2023-05-03T16:20:10.735Z,95652.94
2023-05-03T16:22:38.412Z,95659.97
2023-05-03T16:25:07.383Z,95657.34
2023-05-03T16:27:36.234Z,95646.88
2023-05-03T16:30:03.913Z,95652.13
2023-05-03T16:32:31.600Z,95656.38
2023-05-03T16:34:59.028Z,95654.56
2023-05-03T16:37:26.544Z,95652.94
2023-05-03T16:39:53.988Z,95643.28
2023-05-03T16:42:21.715Z,95651.97
2023-05-03T16:44:50.570Z,95660.63
2023-05-03T16:47:18.093Z,95655.41
2023-05-03T16:49:45.592Z,95651.00
2023-05-03T16:52:13.201Z,95655.41
2023-05-03T16:54:41.506Z,95656.25
2023-05-03T16:57:08.945Z,95657.88
2023-05-03T16:59:36.472Z,95655.25
2023-05-03T17:02:05.346Z,95660.38
2023-05-03T17:04:32.796Z,95657.75
2023-05-03T17:07:00.238Z,95660.22
2023-05-03T17:09:27.704Z,95653.31
2023-05-03T17:11:55.310Z,95654.16
2023-05-03T17:14:22.917Z,95650.72
2023-05-03T17:16:51.312Z,95649.91
2023-05-03T17:19:20.841Z,95655.13
2023-05-03T17:21:48.298Z,95664.63
2023-05-03T17:24:15.769Z,95662.69
2023-05-03T17:26:43.205Z,95660.53
2023-05-03T17:29:10.686Z,95655.78
2023-05-03T17:34:05.674Z,95659.53
2023-05-03T17:36:34.467Z,95661.91
2023-05-03T17:39:02.014Z,95663.47
2023-05-03T17:41:30.146Z,95653.44
2023-05-03T17:43:57.915Z,95659.91
2023-05-03T17:46:25.582Z,95669.00
2023-05-03T17:48:53.474Z,95662.28
2023-05-03T17:51:20.942Z,95661.59
2023-05-03T17:53:49.787Z,95657.34
2023-05-03T17:56:17.613Z,95661.06
2023-05-03T17:58:46.519Z,95662.84
2023-05-03T18:01:15.779Z,95663.00
2023-05-03T18:03:43.717Z,95663.00
2023-05-03T18:06:13.207Z,95669.19
2023-05-03T18:08:41.292Z,95664.94
2023-05-03T18:11:10.273Z,95678.84
2023-05-03T18:13:37.810Z,95669.19
2023-05-03T18:16:06.973Z,95667.56
2023-05-03T18:18:34.525Z,95675.41
2023-05-03T18:21:03.065Z,95665.88
2023-05-03T18:23:31.040Z,95670.16
2023-05-03T18:25:59.667Z,95664.09
2023-05-03T18:28:28.599Z,95662.31
2023-05-03T18:30:56.647Z,95662.16
2023-05-03T18:33:24.177Z,95668.38
2023-05-03T18:35:52.368Z,95676.91
2023-05-03T18:38:21.474Z,95670.00
2023-05-03T18:40:50.186Z,95675.09
2023-05-03T18:43:17.739Z,95681.16
2023-05-03T18:45:46.565Z,95681.16
2023-05-03T18:48:14.032Z,95681.00
2023-05-03T18:50:44.060Z,95689.84
2023-05-03T18:53:11.957Z,95686.22
2023-05-03T18:55:39.890Z,95687.06
2023-05-03T18:58:07.515Z,95691.34
2023-05-03T19:00:35.002Z,95697.53
2023-05-03T19:03:04.128Z,95704.41
2023-05-03T19:05:31.704Z,95697.41
2023-05-03T19:07:59.831Z,95708.66
2023-05-03T19:10:27.310Z,95703.44
2023-05-03T19:12:54.797Z,95707.72
2023-05-03T19:15:22.362Z,95706.88
2023-05-03T19:17:49.876Z,95702.63
2023-05-03T19:20:18.795Z,95709.66
2023-05-03T19:22:46.285Z,95707.16
2023-05-03T19:25:14.991Z,95703.59
2023-05-03T19:27:42.468Z,95708.13
2023-05-03T19:30:11.076Z,95710.91
2023-05-03T19:32:39.313Z,95707.59
2023-05-03T19:35:08.501Z,95711.03
2023-05-03T19:37:37.452Z,95701.25
2023-05-03T19:40:06.130Z,95703.75
2023-05-03T19:42:33.876Z,95699.59
2023-05-03T19:45:03.540Z,95702.22
2023-05-03T19:47:31.562Z,95700.72
2023-05-03T19:49:59.042Z,95705.94
2023-05-03T19:52:26.578Z,95703.59
2023-05-03T19:54:56.315Z,95703.00
2023-05-03T19:57:23.780Z,95700.41
2023-05-03T19:59:51.264Z,95705.63
2023-05-03T20:02:20.586Z,95710.06
2023-05-03T20:04:49.137Z,95705.78
2023-05-03T20:07:16.740Z,95696.97
2023-05-03T20:09:44.154Z,95696.16
2023-05-03T20:12:13.686Z,95706.63
2023-05-03T20:14:41.269Z,95709.22
2023-05-03T20:17:08.711Z,95707.56
2023-05-03T20:19:36.152Z,95705.78
2023-05-03T20:22:04.053Z,95702.22
2023-05-03T20:24:31.506Z,95705.78
2023-05-03T20:26:58.948Z,95703.16
2023-05-03T20:29:27.832Z,95701.38
2023-05-03T20:31:55.786Z,95695.31
2023-05-03T20:34:23.267Z,95698.75
2023-05-03T20:36:51.861Z,95699.72
2023-05-03T20:39:19.574Z,95707.56
2023-05-03T20:41:47.030Z,95705.94
2023-05-03T20:44:14.769Z,95705.09
2023-05-03T20:46:43.518Z,95705.94
2023-05-03T20:49:10.981Z,95701.66
2023-05-03T20:51:38.442Z,95700.69
2023-05-03T20:54:06.083Z,95703.31
2023-05-03T20:56:33.692Z,95704.13
2023-05-03T20:59:01.124Z,95703.31
2023-05-03T21:01:28.614Z,95705.94
2023-05-03T21:03:57.460Z,95711.16
2023-05-03T21:06:24.888Z,95708.53
2023-05-03T21:08:52.910Z,95705.25
2023-05-03T21:11:20.528Z,95704.25
2023-05-03T21:13:47.969Z,95708.53
2023-05-03T21:16:15.444Z,95695.59
2023-05-03T21:18:42.919Z,95697.25
2023-05-03T21:21:11.803Z,95699.03
2023-05-03T21:23:39.286Z,95688.56
2023-05-03T21:26:06.754Z,95692.03
2023-05-03T21:28:34.221Z,95687.75
2023-05-03T21:31:01.711Z,95684.19
2023-05-03T21:33:29.257Z,95678.94
2023-05-03T21:35:56.717Z,95684.19
2023-05-03T21:38:25.579Z,95681.56
2023-05-03T21:40:53.016Z,95682.41
2023-05-03T21:43:20.447Z,95677.00
2023-05-03T21:45:48.827Z,95676.19
2023-05-03T21:48:16.304Z,95670.94
2023-05-03T21:50:44.572Z,95679.63
2023-05-03T21:53:12.154Z,95669.16
2023-05-03T21:55:41.086Z,95671.94
2023-05-03T21:58:08.527Z,95665.59
2023-05-03T22:00:36.320Z,95663.09
2023-05-03T22:03:04.010Z,95675.22
2023-05-03T22:05:31.698Z,95665.72
2023-05-03T22:07:59.153Z,95666.56
2023-05-03T22:10:27.363Z,95666.56
2023-05-03T22:12:56.165Z,95656.25
2023-05-03T22:15:23.675Z,95659.66
2023-05-03T22:17:51.253Z,95657.03
2023-05-03T22:20:18.766Z,95658.84
2023-05-03T22:22:46.209Z,95664.88
2023-05-03T22:25:22.642Z,95657.19
2023-05-03T22:27:50.077Z,95652.78
2023-05-03T22:30:19.306Z,95655.56
2023-05-03T22:32:46.860Z,95662.44
2023-05-03T22:35:15.167Z,95655.56
2023-05-03T22:37:42.710Z,95657.19
2023-05-03T22:40:10.523Z,95645.09
2023-05-03T22:42:38.008Z,95645.09
2023-05-03T22:45:05.864Z,95644.28
2023-05-03T22:47:34.666Z,95640.81
2023-05-03T22:50:02.569Z,95637.38
2023-05-03T22:52:31.888Z,95640.81
2023-05-03T22:55:00.512Z,95632.16
2023-05-03T22:57:27.946Z,95646.88
2023-05-03T22:59:55.544Z,95645.22
2023-05-03T23:02:23.140Z,95642.59
2023-05-03T23:04:52.028Z,95647.00
2023-05-03T23:07:19.891Z,95642.59
2023-05-03T23:09:48.046Z,95636.53
2023-05-03T23:12:15.542Z,95634.75
2023-05-03T23:14:45.770Z,95645.22
2023-05-03T23:17:13.686Z,95635.75
2023-05-03T23:19:41.674Z,95636.53
2023-05-03T23:22:10.500Z,95640.97
2023-05-03T23:24:39.493Z,95641.66
2023-05-03T23:27:07.786Z,95637.38
2023-05-03T23:29:35.567Z,95636.44
2023-05-03T23:32:03.480Z,95628.56
2023-05-03T23:34:31.766Z,95630.38
2023-05-03T23:36:59.205Z,95629.53
2023-05-03T23:39:28.440Z,95621.69
2023-05-03T23:41:55.866Z,95622.53
2023-05-03T23:44:23.275Z,95624.31
2023-05-03T23:46:50.694Z,95626.91
2023-05-03T23:49:18.139Z,95624.31
2023-05-03T23:51:45.587Z,95622.53
2023-05-03T23:54:13.181Z,95624.44
2023-05-03T23:56:41.964Z,95613.00
2023-05-03T23:59:09.378Z,95623.63
